Главная страница
METAR-TAF:

METAR-TAF

Аэропорты :

Martinsburg, Западная Виргиния, США

широта: 39-24-07N, долгота: 077-59-04W, высота над уровнем моря: 170 м

Текущие метеонаблюдения

Эта сводка был подготовлена 38 минут назад, в 05:53 UTC
Штиль
Температура -7°C
Влажность 86%
Давление 1020 hPa
Видимость: 9.7 км
ясное небо
дымка

METAR: KMRB 100553Z AUTO 00000KT 6SM BR CLR M07/M09 A3012 RMK AO2 SLP207 T10721089 11017 21072 58017

Время: 01:31 (06:31 UTC)

Прогноз

Эта сводка был подготовлена 1 час и 2 минут назад, в 05:29 UTC
Прогноз действительный с 10-го 06 UTC до 11-го 06 UTC
Ветер 3 Узел переменных направлений
Видимость: 10 км
Отдельные облака на высоте 15000 фута
Рассеянная облачность на высоте 25000 фута

TAF: KMRB 100529Z 1006/1106 VRB03KT P6SM SCT150 BKN250

Метеонаблюдения и прогнозы для более 4000 аэропортов (сводки METAR и TAF).

Имеющиеся станции представлены на карте желтыми и красными точками.

Чтобы увидеть название станции, наведите на нее мышь.

Затем щелкните, чтобы увидеть метеонаблюдения и метеопрогнозы.

Управление картой: чтобы увеличить масштаб, щелкните зеленые кнопки с черным крестиком; чтобы уменьшить масштаб, щелкните зеленую кнопку с тире; для просмотра соседних карт щелкайте зеленые стрелки.


METAR-TAF: